Time;durP1;ratioP1;P1;durP2;ratioP2;P2;SDS_P1;SDS_P2;PMS_P1;PMS_P2;Temp;Humidity;BMP_temperature;BMP_pressure;BME280_temperature;BME280_humidity;BME280_pressure;Samples;Min_cycle;Max_cycle;Signal;HPM_P1;HPM_P2
2024/04/11 00:00:05;;;;;;;8.00;7.30;;;6.50;99.90;;;;;;5544331;25;20278;-78
2024/04/11 00:02:41;;;;;;;10.73;8.03;;;6.40;99.90;;;;;;5531964;25;20719;-78
2024/04/11 00:05:08;;;;;;;9.60;7.83;;;6.30;99.90;;;;;;5543683;25;20239;-78
2024/04/11 00:07:36;;;;;;;9.43;7.67;;;6.30;99.90;;;;;;5526080;25;20747;-78
2024/04/11 00:10:02;;;;;;;8.73;7.83;;;6.20;99.90;;;;;;5528589;25;21058;-78
2024/04/11 00:12:31;;;;;;;8.20;7.50;;;6.10;99.90;;;;;;5524480;25;20244;-78
2024/04/11 00:14:57;;;;;;;8.90;7.90;;;6.10;99.90;;;;;;5537224;25;20295;-78
2024/04/11 00:17:28;;;;;;;8.53;7.53;;;6.00;99.90;;;;;;5541010;25;20226;-78
2024/04/11 00:19:56;;;;;;;9.70;8.20;;;6.00;99.90;;;;;;5518441;25;20242;-78
2024/04/11 00:22:25;;;;;;;8.80;7.90;;;6.00;99.90;;;;;;5540354;25;20242;-78
2024/04/11 00:24:51;;;;;;;9.20;8.00;;;6.00;99.90;;;;;;5529204;25;20269;-78
2024/04/11 00:27:21;;;;;;;8.37;7.00;;;6.00;99.90;;;;;;5538156;25;20239;-78
2024/04/11 00:29:48;;;;;;;8.17;7.37;;;5.90;99.90;;;;;;5520982;25;20358;-78
2024/04/11 00:32:16;;;;;;;8.83;7.20;;;5.90;99.90;;;;;;5540119;25;20630;-77
2024/04/11 00:34:44;;;;;;;9.33;7.30;;;5.90;99.90;;;;;;5509479;25;20228;-78
2024/04/11 00:37:15;;;;;;;8.60;7.63;;;6.00;99.90;;;;;;5533286;25;20231;-79
2024/04/11 00:39:41;;;;;;;7.20;6.60;;;5.90;99.90;;;;;;5531540;25;20247;-78
2024/04/11 00:42:10;;;;;;;7.17;6.47;;;5.80;99.90;;;;;;5537361;25;20242;-78
2024/04/11 00:44:39;;;;;;;8.30;6.63;;;5.80;99.90;;;;;;5529678;25;20240;-78
2024/04/11 00:47:09;;;;;;;7.37;6.70;;;5.70;99.90;;;;;;5532828;25;20283;-78
2024/04/11 00:49:36;;;;;;;7.37;6.77;;;5.60;99.90;;;;;;5514007;25;20865;-78
2024/04/11 00:52:08;;;;;;;8.90;7.10;;;5.50;99.90;;;;;;5533560;25;20228;-78
2024/04/11 00:54:34;;;;;;;8.50;7.23;;;5.60;99.90;;;;;;5536645;25;20277;-78
2024/04/11 00:57:07;;;;;;;7.93;7.13;;;5.60;99.90;;;;;;5529846;25;20270;-78
2024/04/11 00:59:34;;;;;;;9.53;7.43;;;5.50;99.90;;;;;;5536325;25;20283;-77
2024/04/11 01:02:04;;;;;;;10.30;7.73;;;5.40;99.90;;;;;;5532054;25;20669;-78
2024/04/11 01:04:33;;;;;;;9.57;8.57;;;5.40;99.90;;;;;;5527999;25;20337;-78
2024/04/11 01:07:10;;;;;;;7.83;7.23;;;5.40;99.90;;;;;;5530047;25;20250;-78
2024/04/11 01:09:43;;;;;;;8.90;7.20;;;5.40;99.90;;;;;;5542155;25;20771;-78
2024/04/11 01:12:12;;;;;;;10.10;8.27;;;5.30;99.90;;;;;;5537973;25;20235;-78
2024/04/11 01:14:38;;;;;;;9.73;7.03;;;5.30;99.90;;;;;;5532416;25;20376;-78
2024/04/11 01:17:06;;;;;;;9.07;7.17;;;5.30;99.90;;;;;;5537099;25;20234;-78
2024/04/11 01:19:32;;;;;;;7.73;7.03;;;5.30;99.90;;;;;;5522045;25;20242;-78
2024/04/11 01:22:01;;;;;;;8.00;7.20;;;5.30;99.90;;;;;;5537374;25;20226;-78
2024/04/11 01:24:29;;;;;;;7.63;6.60;;;5.30;99.90;;;;;;5529981;25;20333;-77
2024/04/11 01:26:59;;;;;;;9.03;6.80;;;5.30;99.90;;;;;;5546457;25;20336;-78
2024/04/11 01:29:25;;;;;;;7.97;7.13;;;5.30;99.90;;;;;;5531030;25;20273;-78
2024/04/11 01:31:59;;;;;;;9.27;7.27;;;5.30;99.90;;;;;;5541295;25;20250;-78
2024/04/11 01:34:28;;;;;;;9.43;7.03;;;5.30;99.90;;;;;;5529867;25;20242;-78
2024/04/11 01:36:56;;;;;;;7.77;7.10;;;5.30;99.90;;;;;;5539941;25;20239;-78
2024/04/11 01:39:22;;;;;;;8.43;6.80;;;5.20;99.90;;;;;;5529802;25;20240;-78
2024/04/11 01:41:54;;;;;;;8.37;7.20;;;5.20;99.90;;;;;;5539078;25;20233;-78
2024/04/11 01:44:20;;;;;;;7.90;6.70;;;5.20;99.90;;;;;;5534153;25;20238;-78
2024/04/11 01:46:49;;;;;;;8.93;7.03;;;5.10;99.90;;;;;;5538376;25;20235;-78
2024/04/11 01:49:15;;;;;;;6.93;6.33;;;5.10;99.90;;;;;;5531383;25;20354;-78
2024/04/11 01:51:44;;;;;;;7.57;6.87;;;5.00;99.90;;;;;;5535927;25;20659;-79
2024/04/11 01:54:10;;;;;;;12.53;8.37;;;5.00;99.90;;;;;;5531225;25;20293;-77
2024/04/11 01:56:39;;;;;;;9.93;7.87;;;5.10;99.90;;;;;;5534457;25;20230;-77
2024/04/11 01:59:08;;;;;;;13.33;7.40;;;5.10;99.90;;;;;;5539733;25;20226;-78
2024/04/11 02:01:37;;;;;;;8.50;7.37;;;5.10;99.90;;;;;;5533600;25;20297;-78
2024/04/11 02:04:05;;;;;;;7.63;6.90;;;5.10;99.90;;;;;;5537343;25;20879;-78
2024/04/11 02:06:34;;;;;;;7.73;6.93;;;5.00;99.90;;;;;;5526796;25;20227;-77
2024/04/11 02:09:05;;;;;;;7.67;6.90;;;4.90;99.90;;;;;;5535260;25;20272;-78
2024/04/11 02:11:35;;;;;;;7.37;6.67;;;4.90;99.90;;;;;;5545982;25;20330;-78
2024/04/11 02:14:01;;;;;;;7.53;6.73;;;4.80;99.90;;;;;;5536330;25;20729;-78
2024/04/11 02:16:34;;;;;;;9.13;7.20;;;4.80;99.90;;;;;;5540776;25;20264;-78
2024/04/11 02:19:03;;;;;;;8.13;7.10;;;4.70;99.90;;;;;;5532625;25;20602;-78
2024/04/11 02:21:31;;;;;;;10.57;7.43;;;4.70;99.90;;;;;;5537353;25;20239;-78
2024/04/11 02:23:57;;;;;;;9.17;7.37;;;4.60;99.90;;;;;;5530749;25;20288;-78
2024/04/11 02:26:25;;;;;;;7.70;6.97;;;4.60;99.90;;;;;;5536759;25;20694;-77
2024/04/11 02:28:53;;;;;;;9.00;6.83;;;4.60;99.90;;;;;;5530979;25;20225;-78
2024/04/11 02:31:22;;;;;;;7.97;7.10;;;4.60;99.90;;;;;;5534162;25;20268;-78
2024/04/11 02:33:51;;;;;;;8.87;7.30;;;4.60;99.90;;;;;;5514277;25;20276;-78
2024/04/11 02:36:20;;;;;;;8.70;7.80;;;4.70;99.90;;;;;;5533874;25;20341;-78
2024/04/11 02:38:46;;;;;;;9.13;7.20;;;4.70;99.90;;;;;;5530018;25;20298;-78
2024/04/11 02:41:15;;;;;;;7.40;6.70;;;4.70;99.90;;;;;;5545935;25;20240;-81
2024/04/11 02:43:40;;;;;;;8.83;7.90;;;4.70;99.90;;;;;;5521675;25;20287;-77
2024/04/11 02:46:15;;;;;;;8.97;7.40;;;4.60;99.90;;;;;;5543757;25;20228;-77
2024/04/11 02:48:41;;;;;;;7.70;7.10;;;4.50;99.90;;;;;;5526914;25;20237;-77
2024/04/11 02:51:12;;;;;;;8.40;7.50;;;4.60;99.90;;;;;;5542263;25;20233;-79
2024/04/11 02:53:39;;;;;;;8.57;7.47;;;4.50;99.90;;;;;;5529489;25;20344;-82
2024/04/11 02:56:08;;;;;;;9.23;7.93;;;4.50;99.90;;;;;;5525605;25;20237;-81
2024/04/11 02:58:34;;;;;;;8.70;7.83;;;4.40;99.90;;;;;;5511194;25;20276;-80
2024/04/11 03:01:03;;;;;;;12.27;7.67;;;4.50;99.90;;;;;;5509908;26;20238;-79
2024/04/11 03:03:34;;;;;;;8.27;7.20;;;4.50;99.90;;;;;;5526154;25;20249;-79
2024/04/11 03:06:08;;;;;;;8.10;7.30;;;4.50;99.90;;;;;;5538720;25;20319;-80
2024/04/11 03:08:36;;;;;;;10.13;7.90;;;4.50;99.90;;;;;;5555362;25;20637;-79
2024/04/11 03:11:05;;;;;;;8.37;7.57;;;4.60;99.90;;;;;;5517548;25;20243;-80
2024/04/11 03:13:30;;;;;;;7.73;6.93;;;4.50;99.90;;;;;;5527034;25;20287;-80
2024/04/11 03:15:59;;;;;;;9.83;7.77;;;4.30;99.90;;;;;;5535799;25;20241;-79
2024/04/11 03:18:25;;;;;;;10.20;7.47;;;4.40;99.90;;;;;;5542052;25;20244;-77
2024/04/11 03:20:55;;;;;;;7.73;7.03;;;4.40;99.90;;;;;;5523589;25;20294;-78
2024/04/11 03:23:22;;;;;;;8.50;7.53;;;4.40;99.90;;;;;;5505564;25;20242;-78
2024/04/11 03:25:53;;;;;;;8.80;6.93;;;4.50;99.90;;;;;;5515726;25;20276;-76
2024/04/11 03:28:19;;;;;;;9.10;7.57;;;4.40;99.90;;;;;;5515111;25;20246;-77
2024/04/11 03:30:55;;;;;;;8.20;7.27;;;4.40;99.90;;;;;;5502702;25;20910;-76
2024/04/11 03:33:21;;;;;;;10.60;7.30;;;4.50;99.90;;;;;;5516515;25;20233;-76
2024/04/11 03:35:56;;;;;;;8.33;7.20;;;4.50;99.90;;;;;;5540532;25;20331;-77
2024/04/11 03:38:24;;;;;;;8.30;7.50;;;4.40;99.90;;;;;;5529243;25;20236;-76
2024/04/11 03:41:04;;;;;;;8.27;7.27;;;4.30;99.90;;;;;;5518871;25;20247;-77
2024/04/11 03:43:34;;;;;;;9.50;7.33;;;4.30;99.90;;;;;;5531264;25;20279;-76
2024/04/11 03:46:05;;;;;;;8.20;7.23;;;4.30;99.90;;;;;;5510233;25;20325;-76
2024/04/11 03:48:33;;;;;;;8.63;7.73;;;4.40;99.90;;;;;;5525724;25;20233;-76
2024/04/11 03:51:09;;;;;;;9.53;8.20;;;4.40;99.90;;;;;;5513884;25;20278;-76
2024/04/11 03:53:35;;;;;;;8.97;7.67;;;4.40;99.90;;;;;;5529958;25;20232;-77
2024/04/11 03:56:08;;;;;;;9.27;8.37;;;4.40;99.90;;;;;;5533992;25;20237;-77
2024/04/11 03:58:37;;;;;;;10.87;8.67;;;4.30;99.90;;;;;;5541964;25;20228;-77
2024/04/11 04:01:06;;;;;;;12.13;8.70;;;4.30;99.90;;;;;;5526793;25;20229;-77
2024/04/11 04:03:33;;;;;;;10.67;8.53;;;4.20;99.90;;;;;;5514922;25;20931;-77
2024/04/11 04:06:01;;;;;;;10.47;7.80;;;4.30;99.90;;;;;;5530797;25;20276;-77
2024/04/11 04:08:28;;;;;;;8.50;7.73;;;4.30;99.90;;;;;;5533218;25;20241;-76
2024/04/11 04:10:56;;;;;;;9.90;7.70;;;4.30;99.90;;;;;;5542031;25;20333;-77
2024/04/11 04:13:26;;;;;;;10.33;8.03;;;4.30;99.90;;;;;;5525067;25;20739;-76
2024/04/11 04:15:55;;;;;;;8.70;7.80;;;4.30;99.90;;;;;;5540865;25;20276;-76
2024/04/11 04:18:20;;;;;;;9.53;7.23;;;4.20;99.90;;;;;;5532353;25;20225;-77
2024/04/11 04:20:56;;;;;;;8.20;7.40;;;4.30;99.90;;;;;;5537388;25;20236;-77
2024/04/11 04:23:23;;;;;;;8.33;7.53;;;4.30;99.90;;;;;;5531695;25;20234;-77
2024/04/11 04:25:59;;;;;;;9.23;7.77;;;4.40;99.90;;;;;;5532689;25;20294;-77
2024/04/11 04:28:30;;;;;;;8.00;7.23;;;4.30;99.90;;;;;;5529130;25;20229;-76
2024/04/11 04:31:14;;;;;;;8.90;8.10;;;4.20;99.90;;;;;;5532608;25;20273;-77
2024/04/11 04:33:41;;;;;;;10.83;8.37;;;4.20;99.90;;;;;;5529787;25;20284;-77
2024/04/11 04:36:11;;;;;;;9.40;8.27;;;4.20;99.90;;;;;;5526540;25;20264;-77
2024/04/11 04:38:37;;;;;;;9.43;8.07;;;4.10;99.90;;;;;;5533525;25;20242;-77
2024/04/11 04:41:07;;;;;;;8.33;7.20;;;4.10;99.90;;;;;;5529180;25;20238;-77
2024/04/11 04:43:36;;;;;;;9.83;8.10;;;4.10;99.90;;;;;;5529222;25;20284;-77
2024/04/11 04:46:05;;;;;;;9.10;7.37;;;4.10;99.90;;;;;;5527210;25;20272;-76
2024/04/11 04:48:31;;;;;;;8.97;7.70;;;4.20;99.90;;;;;;5542819;25;20232;-76
2024/04/11 04:51:00;;;;;;;11.30;8.57;;;4.00;99.90;;;;;;5526163;25;20237;-77
2024/04/11 04:53:26;;;;;;;11.40;8.67;;;4.00;99.90;;;;;;5540429;25;20331;-76
2024/04/11 04:55:54;;;;;;;9.20;8.30;;;4.00;99.90;;;;;;5524774;25;20241;-76
2024/04/11 04:58:21;;;;;;;8.73;7.93;;;4.10;99.90;;;;;;5534697;25;20234;-77
2024/04/11 05:00:52;;;;;;;10.77;7.80;;;4.10;99.90;;;;;;5539979;25;20391;-76
2024/04/11 05:03:18;;;;;;;8.80;7.90;;;4.10;99.90;;;;;;5532122;25;20288;-77
2024/04/11 05:05:48;;;;;;;9.40;8.23;;;4.00;99.90;;;;;;5539899;25;20724;-77
2024/04/11 05:08:14;;;;;;;8.60;7.80;;;4.00;99.90;;;;;;5527359;25;20771;-77
2024/04/11 05:10:43;;;;;;;9.43;8.53;;;4.10;99.90;;;;;;5538952;25;20788;-78
2024/04/11 05:13:09;;;;;;;9.70;8.60;;;4.20;99.90;;;;;;5525625;25;20918;-78
2024/04/11 05:15:38;;;;;;;9.67;8.40;;;4.30;99.90;;;;;;5520002;25;20337;-78
2024/04/11 05:18:07;;;;;;;8.90;8.07;;;4.30;99.90;;;;;;5523647;25;20295;-78
2024/04/11 05:20:36;;;;;;;8.33;7.57;;;4.30;99.90;;;;;;5535307;25;20278;-79
2024/04/11 05:23:06;;;;;;;8.43;7.73;;;4.40;99.90;;;;;;5530093;25;20705;-78
2024/04/11 05:25:36;;;;;;;8.43;7.63;;;4.50;99.90;;;;;;5528872;25;20271;-78
2024/04/11 05:28:07;;;;;;;8.50;7.70;;;4.50;99.90;;;;;;5524735;25;20268;-78
2024/04/11 05:30:38;;;;;;;8.63;7.87;;;4.60;99.90;;;;;;5531472;25;20611;-79
2024/04/11 05:33:08;;;;;;;9.27;7.57;;;4.70;99.90;;;;;;5522953;26;20246;-79
2024/04/11 05:35:37;;;;;;;8.20;7.40;;;4.90;99.90;;;;;;5529942;25;20276;-79
2024/04/11 05:38:03;;;;;;;11.10;7.77;;;5.20;99.90;;;;;;5516689;25;20234;-78
2024/04/11 05:40:32;;;;;;;8.70;7.80;;;5.40;99.90;;;;;;5521422;25;20288;-78
2024/04/11 05:42:58;;;;;;;8.53;7.63;;;5.70;99.90;;;;;;5526850;25;20245;-79
2024/04/11 05:45:33;;;;;;;10.60;7.60;;;5.90;99.90;;;;;;5521245;25;20312;-79
2024/04/11 05:48:00;;;;;;;8.40;7.70;;;6.00;99.90;;;;;;5531011;25;20265;-79
2024/04/11 05:50:31;;;;;;;11.63;8.13;;;6.10;99.90;;;;;;5524404;25;20256;-79
2024/04/11 05:52:58;;;;;;;9.13;8.20;;;6.30;99.90;;;;;;5536983;25;20587;-78
2024/04/11 05:55:26;;;;;;;8.33;7.53;;;6.50;99.90;;;;;;5539983;25;20278;-78
2024/04/11 05:57:54;;;;;;;8.00;7.20;;;6.60;99.90;;;;;;5533755;25;20744;-79
2024/04/11 06:00:29;;;;;;;8.23;7.43;;;6.80;99.90;;;;;;5518196;25;20342;-78
2024/04/11 06:02:55;;;;;;;10.40;8.40;;;6.90;99.90;;;;;;5530973;25;20248;-78
2024/04/11 06:05:24;;;;;;;9.97;8.40;;;7.00;99.90;;;;;;5547228;25;20232;-79
2024/04/11 06:07:55;;;;;;;8.43;7.83;;;7.00;99.90;;;;;;5528487;25;20260;-79
2024/04/11 06:10:23;;;;;;;9.53;8.73;;;7.10;99.90;;;;;;5545198;25;20232;-79
2024/04/11 06:12:49;;;;;;;11.13;7.83;;;7.20;99.90;;;;;;5560809;25;20287;-79
2024/04/11 06:15:19;;;;;;;9.40;7.87;;;7.20;99.90;;;;;;5537649;25;20272;-80
2024/04/11 06:17:45;;;;;;;7.97;7.27;;;7.40;99.90;;;;;;5533055;25;20310;-79
2024/04/11 06:20:15;;;;;;;10.63;7.73;;;7.50;99.90;;;;;;5527054;25;20237;-78
2024/04/11 06:22:42;;;;;;;8.60;7.70;;;7.70;99.90;;;;;;5540585;25;20368;-78
2024/04/11 06:25:15;;;;;;;8.73;7.40;;;7.80;99.90;;;;;;5530868;25;20775;-78
2024/04/11 06:27:41;;;;;;;9.67;7.83;;;8.10;99.90;;;;;;5520668;26;20233;-79
2024/04/11 06:30:14;;;;;;;9.17;8.27;;;8.20;99.90;;;;;;5510333;25;20537;-79
2024/04/11 06:32:40;;;;;;;8.67;7.97;;;8.40;99.90;;;;;;5524845;26;20280;-78
2024/04/11 06:35:09;;;;;;;7.83;6.17;;;8.60;99.90;;;;;;5523143;25;20561;-79
2024/04/11 06:37:35;;;;;;;7.37;6.10;;;8.70;99.90;;;;;;5527130;25;20288;-78
2024/04/11 06:40:11;;;;;;;6.73;5.07;;;8.70;99.90;;;;;;5517268;25;20580;-79
2024/04/11 06:42:46;;;;;;;8.23;5.63;;;8.80;99.90;;;;;;5525602;26;20233;-79
2024/04/11 06:45:19;;;;;;;6.50;5.90;;;8.80;99.90;;;;;;5501663;26;20267;-78
2024/04/11 06:47:45;;;;;;;7.30;6.30;;;8.70;99.90;;;;;;5503487;26;20227;-79
2024/04/11 06:50:14;;;;;;;9.37;6.97;;;8.70;99.90;;;;;;5525078;25;20241;-78
2024/04/11 06:52:42;;;;;;;6.33;5.83;;;8.70;99.90;;;;;;5525609;25;20284;-78
2024/04/11 06:55:12;;;;;;;7.00;6.33;;;8.80;99.90;;;;;;5525336;26;20329;-79
2024/04/11 06:57:43;;;;;;;6.97;5.40;;;8.90;99.90;;;;;;5511632;25;20622;-78
2024/04/11 07:00:21;;;;;;;7.70;6.90;;;9.00;99.90;;;;;;5515288;26;20281;-79
2024/04/11 07:02:49;;;;;;;8.83;7.43;;;9.10;99.90;;;;;;5526947;26;20289;-79
2024/04/11 07:05:20;;;;;;;8.53;7.73;;;9.30;99.90;;;;;;5516004;25;20297;-82
2024/04/11 07:07:46;;;;;;;7.93;7.23;;;9.40;99.90;;;;;;5547333;25;20296;-81
2024/04/11 07:10:24;;;;;;;8.37;5.57;;;9.50;99.90;;;;;;5526208;25;20719;-82
2024/04/11 07:12:53;;;;;;;8.10;4.13;;;9.50;99.90;;;;;;5544861;25;20232;-80
2024/04/11 07:15:28;;;;;;;6.60;4.40;;;9.70;99.90;;;;;;5525980;25;20795;-81
2024/04/11 07:17:56;;;;;;;8.07;5.43;;;9.90;99.90;;;;;;5531736;25;20274;-82
2024/04/11 07:20:31;;;;;;;8.20;6.80;;;10.20;99.90;;;;;;5533731;25;20277;-81
2024/04/11 07:22:58;;;;;;;7.80;7.00;;;10.70;99.90;;;;;;5527340;25;20331;-81
2024/04/11 07:25:32;;;;;;;7.50;6.77;;;10.90;99.90;;;;;;5526209;25;20240;-81
2024/04/11 07:28:00;;;;;;;8.57;5.93;;;11.30;99.90;;;;;;5531193;25;20248;-81
2024/04/11 07:30:29;;;;;;;7.33;5.80;;;11.60;99.90;;;;;;5527078;25;20641;-81
2024/04/11 07:32:56;;;;;;;8.00;3.80;;;11.90;99.90;;;;;;5521785;26;20281;-81
2024/04/11 07:35:30;;;;;;;7.77;3.73;;;12.60;99.90;;;;;;5520234;26;20629;-81
2024/04/11 07:37:57;;;;;;;11.07;4.00;;;13.10;99.90;;;;;;5525596;25;20230;-81
2024/04/11 07:40:32;;;;;;;7.27;3.97;;;13.40;99.90;;;;;;5526569;25;20240;-78
2024/04/11 07:43:06;;;;;;;8.73;5.27;;;13.80;99.90;;;;;;5514642;25;20790;-79
2024/04/11 07:45:36;;;;;;;6.67;4.17;;;14.30;99.90;;;;;;5507167;26;20812;-78
2024/04/11 07:48:04;;;;;;;6.77;5.00;;;14.30;99.90;;;;;;5509671;26;20720;-80
2024/04/11 07:50:33;;;;;;;7.43;4.00;;;14.90;99.90;;;;;;5520041;25;20317;-80
2024/04/11 07:53:00;;;;;;;5.97;3.47;;;15.10;99.90;;;;;;5522839;26;20291;-80
2024/04/11 07:55:29;;;;;;;6.30;3.83;;;15.40;99.90;;;;;;5523920;26;20245;-79
2024/04/11 07:57:58;;;;;;;7.73;4.03;;;15.60;99.90;;;;;;5520649;25;20647;-79
2024/04/11 08:00:29;;;;;;;7.30;3.80;;;15.80;99.90;;;;;;5508214;25;20729;-79
2024/04/11 08:02:56;;;;;;;4.63;3.27;;;16.00;99.90;;;;;;5522089;26;20237;-79
2024/04/11 08:05:25;;;;;;;7.87;3.90;;;15.90;99.90;;;;;;5508287;26;20294;-78
2024/04/11 08:07:51;;;;;;;4.37;3.33;;;16.10;99.90;;;;;;5512553;26;20273;-80
2024/04/11 08:10:21;;;;;;;10.07;4.20;;;16.30;99.90;;;;;;5504693;26;20234;-78
2024/04/11 08:12:47;;;;;;;7.17;3.70;;;16.20;99.90;;;;;;5512021;25;20594;-77
2024/04/11 08:15:16;;;;;;;6.90;3.50;;;16.00;99.90;;;;;;5515019;25;20229;-78
2024/04/11 08:17:45;;;;;;;6.93;3.50;;;16.30;99.90;;;;;;5524768;25;20627;-76
2024/04/11 08:20:14;;;;;;;5.60;3.50;;;16.40;99.90;;;;;;5523927;26;20239;-77
2024/04/11 08:22:41;;;;;;;8.43;3.90;;;16.30;99.90;;;;;;5525058;25;20294;-78
2024/04/11 08:25:12;;;;;;;7.83;3.57;;;16.40;99.90;;;;;;5525925;25;20236;-79
2024/04/11 08:27:38;;;;;;;8.03;4.17;;;16.80;99.90;;;;;;5525504;26;20809;-78
2024/04/11 08:30:09;;;;;;;5.97;3.40;;;16.80;99.90;;;;;;5522934;25;20286;-78
2024/04/11 08:32:35;;;;;;;8.77;3.53;;;17.00;99.90;;;;;;5525934;25;20231;-78
2024/04/11 08:35:06;;;;;;;6.13;3.53;;;17.30;99.90;;;;;;5515888;26;20673;-78
2024/04/11 08:37:33;;;;;;;4.80;3.13;;;17.30;99.90;;;;;;5522536;25;20280;-78
2024/04/11 08:40:02;;;;;;;5.27;3.70;;;17.60;99.90;;;;;;5506834;26;20242;-78
2024/04/11 08:42:28;;;;;;;8.20;4.07;;;17.70;99.90;;;;;;5527257;25;20280;-78
2024/04/11 08:44:59;;;;;;;6.33;3.83;;;17.50;99.90;;;;;;5524148;26;20292;-79
2024/04/11 08:47:25;;;;;;;6.33;3.50;;;17.90;99.90;;;;;;5519448;25;20225;-77
2024/04/11 08:49:54;;;;;;;7.50;3.77;;;17.90;99.90;;;;;;5527774;25;20229;-79
2024/04/11 08:52:23;;;;;;;4.43;2.80;;;18.00;99.90;;;;;;5516103;25;20268;-78
2024/04/11 08:54:55;;;;;;;5.50;3.20;;;18.10;99.90;;;;;;5523589;26;20270;-78
2024/04/11 08:57:21;;;;;;;6.77;3.30;;;18.20;99.90;;;;;;5507826;25;20225;-79
2024/04/11 08:59:51;;;;;;;6.33;2.97;;;18.60;99.90;;;;;;5527292;25;20731;-79
2024/04/11 09:02:19;;;;;;;4.10;3.03;;;18.70;99.90;;;;;;5519298;26;20354;-79
2024/04/11 09:04:45;;;;;;;5.57;3.00;;;18.50;99.90;;;;;;5517807;26;20234;-79
2024/04/11 09:07:21;;;;;;;5.47;3.00;;;18.30;99.90;;;;;;5510976;26;20280;-76
2024/04/11 09:09:50;;;;;;;6.93;3.10;;;18.60;99.90;;;;;;5506375;26;20336;-77
2024/04/11 09:12:22;;;;;;;4.53;2.90;;;18.60;99.90;;;;;;5508832;26;20245;-77
2024/04/11 09:14:48;;;;;;;6.30;3.47;;;18.40;99.90;;;;;;5506389;25;20708;-77
2024/04/11 09:17:17;;;;;;;7.60;3.57;;;18.20;99.20;;;;;;5519329;26;20229;-77
2024/04/11 09:19:45;;;;;;;5.47;4.00;;;18.40;99.90;;;;;;5514601;25;20915;-77
2024/04/11 09:22:16;;;;;;;6.90;4.93;;;18.60;99.90;;;;;;5526504;25;20276;-77
2024/04/11 09:24:44;;;;;;;5.53;3.10;;;18.90;99.90;;;;;;5525958;25;20275;-77
2024/04/11 09:27:16;;;;;;;8.50;3.23;;;18.90;99.90;;;;;;5522158;25;20242;-77
2024/04/11 09:29:42;;;;;;;4.50;2.90;;;19.10;99.40;;;;;;5526305;25;20280;-77
2024/04/11 09:32:15;;;;;;;9.47;4.13;;;19.20;99.90;;;;;;5526781;25;20598;-77
2024/04/11 09:34:42;;;;;;;5.73;3.57;;;19.00;99.60;;;;;;5518570;25;20287;-77
2024/04/11 09:37:15;;;;;;;7.07;3.20;;;18.90;99.90;;;;;;5522773;26;20283;-77
2024/04/11 09:39:45;;;;;;;4.87;2.63;;;19.10;99.90;;;;;;5539255;25;20612;-77
2024/04/11 09:42:18;;;;;;;6.73;2.73;;;18.90;99.90;;;;;;5528746;25;20233;-80
2024/04/11 09:44:47;;;;;;;5.50;2.73;;;19.20;99.90;;;;;;5538722;25;20228;-80
2024/04/11 09:47:18;;;;;;;7.10;3.10;;;19.30;99.90;;;;;;5540071;25;20762;-80
2024/04/11 09:49:53;;;;;;;4.93;2.70;;;19.40;99.90;;;;;;5535489;25;20286;-80
2024/04/11 09:52:26;;;;;;;6.57;2.93;;;19.30;98.40;;;;;;5541626;25;20474;-80
2024/04/11 09:54:52;;;;;;;7.93;3.00;;;19.50;99.80;;;;;;5533650;25;20236;-79
2024/04/11 09:57:25;;;;;;;3.83;2.70;;;19.60;99.90;;;;;;5540031;25;20296;-80
2024/04/11 09:59:51;;;;;;;6.13;2.80;;;19.60;98.90;;;;;;5530524;25;20754;-80
2024/04/11 10:02:21;;;;;;;6.47;2.53;;;19.70;98.40;;;;;;5529902;25;20237;-79
2024/04/11 10:04:47;;;;;;;7.80;2.90;;;19.50;98.80;;;;;;5528778;25;20233;-80
2024/04/11 10:07:21;;;;;;;4.93;2.60;;;19.30;97.00;;;;;;5538739;25;20790;-84
2024/04/11 10:09:47;;;;;;;4.93;3.00;;;18.70;97.30;;;;;;5528455;25;20337;-84
2024/04/11 10:12:20;;;;;;;4.53;2.30;;;18.70;98.10;;;;;;5539111;25;20299;-84
2024/04/11 10:14:59;;;;;;;4.23;2.50;;;18.80;98.10;;;;;;5539265;25;20272;-84
2024/04/11 10:17:28;;;;;;;6.70;2.73;;;18.90;97.90;;;;;;5511420;26;20233;-78
2024/04/11 10:20:07;;;;;;;5.43;3.00;;;18.60;98.10;;;;;;5537593;25;20268;-78
2024/04/11 10:22:42;;;;;;;4.03;2.30;;;18.30;96.80;;;;;;5515770;25;20233;-78
2024/04/11 10:25:18;;;;;;;3.80;3.50;;;18.10;99.40;;;;;;5483375;21;20259;-77
2024/04/11 10:27:47;;;;;;;3.73;3.20;;;18.00;96.90;;;;;;5430691;26;20247;-81
2024/04/11 10:30:21;;;;;;;4.07;3.10;;;18.10;98.80;;;;;;5437483;26;20792;-78
2024/04/11 10:32:46;;;;;;;4.67;2.40;;;18.00;98.20;;;;;;5436618;26;20231;-79
2024/04/11 10:35:19;;;;;;;5.87;2.80;;;18.00;97.90;;;;;;5419381;26;20251;-78
2024/04/11 10:37:46;;;;;;;3.57;2.83;;;18.00;99.10;;;;;;5414601;26;20244;-79
2024/04/11 10:40:17;;;;;;;5.20;2.83;;;17.80;99.00;;;;;;5417636;26;20231;-79
2024/04/11 10:43:11;;;;;;;6.03;3.20;;;18.00;98.90;;;;;;5419969;26;20539;-79
2024/04/11 10:45:38;;;;;;;4.53;2.80;;;17.90;98.50;;;;;;5417076;26;20750;-79
2024/04/11 10:48:08;;;;;;;3.83;2.93;;;17.90;97.70;;;;;;5417471;26;20289;-81
2024/04/11 10:50:37;;;;;;;4.80;2.40;;;18.00;99.40;;;;;;5414399;26;20283;-80
2024/04/11 10:53:04;;;;;;;4.37;2.30;;;18.00;98.00;;;;;;5418261;26;20786;-80
2024/04/11 10:55:35;;;;;;;2.90;2.20;;;17.80;97.30;;;;;;5416627;26;20292;-80
2024/04/11 10:58:13;;;;;;;4.40;2.23;;;17.90;98.10;;;;;;5418103;26;20286;-81
2024/04/11 11:03:57;;;;;;;4.97;2.40;;;17.90;97.20;;;;;;5559677;25;20698;-81
2024/04/11 11:06:24;;;;;;;4.70;3.20;;;17.70;97.40;;;;;;5538769;25;20231;-81
2024/04/11 11:08:59;;;;;;;4.60;3.50;;;17.30;97.50;;;;;;5516580;25;20579;-81
2024/04/11 11:11:26;;;;;;;4.80;2.47;;;17.30;98.40;;;;;;5544721;25;20347;-82
2024/04/11 11:13:56;;;;;;;4.77;3.13;;;17.40;97.70;;;;;;5519628;25;20231;-80
2024/04/11 11:16:26;;;;;;;3.53;3.23;;;17.30;97.60;;;;;;5541977;25;20345;-82
2024/04/11 11:18:58;;;;;;;4.03;3.73;;;17.30;98.50;;;;;;5533031;25;20330;-81
2024/04/11 11:21:25;;;;;;;4.83;4.00;;;17.40;99.50;;;;;;5519785;25;20249;-82
2024/04/11 11:23:59;;;;;;;4.93;4.40;;;17.40;98.60;;;;;;5539191;25;20725;-81
2024/04/11 11:26:35;;;;;;;5.00;4.17;;;17.40;97.90;;;;;;5539896;25;20225;-81
2024/04/11 11:29:05;;;;;;;6.27;4.50;;;17.30;98.70;;;;;;5541543;25;20228;-81
2024/04/11 11:31:31;;;;;;;5.50;4.50;;;17.20;97.90;;;;;;5528889;25;20734;-81
2024/04/11 11:34:09;;;;;;;4.90;4.40;;;17.10;98.50;;;;;;5533095;25;20259;-81
2024/04/11 11:36:37;;;;;;;4.47;4.10;;;17.10;98.30;;;;;;5527548;25;20297;-81
2024/04/11 11:39:09;;;;;;;5.97;4.33;;;17.20;99.50;;;;;;5516690;25;20226;-81
2024/04/11 11:41:37;;;;;;;6.10;4.50;;;17.30;98.60;;;;;;5527034;25;20236;-82
2024/04/11 11:44:17;;;;;;;7.40;5.07;;;17.00;97.80;;;;;;5535461;25;20732;-82
2024/04/11 11:46:44;;;;;;;5.50;4.60;;;16.80;98.90;;;;;;5522053;25;20229;-81
2024/04/11 11:49:17;;;;;;;6.20;4.77;;;16.80;98.70;;;;;;5535539;25;20290;-81
2024/04/11 11:51:44;;;;;;;5.17;4.67;;;17.00;99.40;;;;;;5541130;25;20244;-81
2024/04/11 11:54:14;;;;;;;7.10;4.93;;;17.10;99.00;;;;;;5543433;25;20238;-80
2024/04/11 11:56:42;;;;;;;6.10;5.47;;;17.10;99.10;;;;;;5540355;25;20225;-82
2024/04/11 11:59:10;;;;;;;5.40;4.93;;;16.80;98.30;;;;;;5543341;25;20337;-82
2024/04/11 12:01:41;;;;;;;4.77;4.30;;;16.80;98.70;;;;;;5543666;25;20728;-81
2024/04/11 12:04:10;;;;;;;4.50;4.13;;;16.90;98.80;;;;;;5543833;25;20245;-81
2024/04/11 12:06:44;;;;;;;5.60;4.63;;;16.90;98.70;;;;;;5543066;25;20341;-81
2024/04/11 12:09:13;;;;;;;5.83;4.70;;;16.80;98.60;;;;;;5543582;25;20260;-81
2024/04/11 12:12:07;;;;;;;5.40;4.60;;;16.80;98.90;;;;;;5526069;25;20236;-82
2024/04/11 12:14:42;;;;;;;5.17;4.00;;;16.90;98.50;;;;;;5512434;26;20241;-80
2024/04/11 12:17:10;;;;;;;3.93;3.60;;;16.90;99.50;;;;;;5500594;26;20278;-81
2024/04/11 12:19:40;;;;;;;3.10;2.80;;;17.10;99.30;;;;;;5507907;25;20233;-80
2024/04/11 12:22:11;;;;;;;2.97;2.70;;;17.30;99.50;;;;;;5527122;25;20225;-80
2024/04/11 12:24:40;;;;;;;3.73;3.17;;;17.40;99.40;;;;;;5503585;26;20281;-80
2024/04/11 12:27:06;;;;;;;5.43;3.80;;;17.60;99.70;;;;;;5506595;26;20278;-79
2024/04/11 12:29:34;;;;;;;6.07;4.10;;;17.50;97.90;;;;;;5520565;26;20237;-81
2024/04/11 12:32:02;;;;;;;4.70;3.97;;;17.40;99.30;;;;;;5513949;26;20242;-81
2024/04/11 12:34:32;;;;;;;6.70;4.00;;;17.50;99.40;;;;;;5513748;25;20283;-82
2024/04/11 12:36:58;;;;;;;5.40;3.70;;;17.40;99.20;;;;;;5526779;26;20277;-79
2024/04/11 12:39:41;;;;;;;5.30;3.50;;;17.20;98.30;;;;;;5522977;26;20250;-78
2024/04/11 12:42:07;;;;;;;4.77;3.20;;;17.20;99.30;;;;;;5529944;25;20278;-78
2024/04/11 12:44:38;;;;;;;3.33;3.03;;;17.20;98.30;;;;;;5529171;25;20609;-79
2024/04/11 12:47:13;;;;;;;5.73;3.30;;;17.00;99.00;;;;;;5529762;25;20280;-79
2024/04/11 12:49:47;;;;;;;5.43;3.63;;;17.00;98.50;;;;;;5527227;26;20267;-78
2024/04/11 12:52:13;;;;;;;4.47;3.70;;;17.00;98.40;;;;;;5529670;25;20229;-78
2024/04/11 12:54:47;;;;;;;5.03;3.53;;;17.00;98.70;;;;;;5528983;25;20234;-79
2024/04/11 12:57:17;;;;;;;4.50;3.70;;;17.10;98.70;;;;;;5529852;25;20230;-79
2024/04/11 12:59:48;;;;;;;5.43;4.00;;;17.10;99.00;;;;;;5529165;25;20317;-79
2024/04/11 13:02:19;;;;;;;4.30;3.90;;;17.00;98.90;;;;;;5528205;25;20247;-79
2024/04/11 13:04:54;;;;;;;5.33;3.80;;;17.20;98.60;;;;;;5518022;26;20235;-80
2024/04/11 13:07:21;;;;;;;3.47;3.20;;;17.10;98.90;;;;;;5492583;26;20235;-79